createdAt,value
2019-05-25T00:02:02.086Z,6.90
2019-05-25T00:04:30.745Z,7.63
2019-05-25T00:06:59.379Z,7.63
2019-05-25T00:09:28.022Z,7.10
2019-05-25T00:11:56.550Z,7.37
2019-05-25T00:14:25.439Z,7.10
2019-05-25T00:16:54.123Z,9.13
2019-05-25T00:19:22.709Z,7.87
2019-05-25T00:21:51.446Z,7.40
2019-05-25T00:24:20.074Z,9.13
2019-05-25T00:26:48.718Z,8.07
2019-05-25T00:29:17.551Z,7.30
2019-05-25T00:31:46.141Z,8.47
2019-05-25T00:34:14.702Z,9.07
2019-05-25T00:36:43.308Z,8.67
2019-05-25T00:39:11.969Z,8.47
2019-05-25T00:41:40.758Z,6.97
2019-05-25T00:44:09.267Z,10.17
2019-05-25T00:46:37.811Z,6.83
2019-05-25T00:49:06.440Z,10.93
2019-05-25T00:51:35.118Z,7.83
2019-05-25T00:54:03.859Z,7.57
2019-05-25T00:56:32.728Z,9.87
2019-05-25T00:59:01.234Z,6.20
2019-05-25T01:01:29.907Z,8.20
2019-05-25T01:03:58.482Z,6.40
2019-05-25T01:06:27.098Z,6.43
2019-05-25T01:08:55.693Z,7.80
2019-05-25T01:11:24.306Z,6.70
2019-05-25T01:13:53.067Z,7.03
2019-05-25T01:16:21.535Z,7.90
2019-05-25T01:18:50.440Z,9.43
2019-05-25T01:21:19.051Z,9.17
2019-05-25T01:24:06.962Z,9.90
2019-05-25T01:26:35.561Z,8.63
2019-05-25T01:29:04.178Z,10.77
2019-05-25T01:31:32.786Z,8.17
2019-05-25T01:34:01.389Z,13.67
2019-05-25T01:36:29.998Z,8.50
2019-05-25T01:38:58.698Z,8.83
2019-05-25T01:41:27.233Z,9.43
2019-05-25T01:43:55.820Z,8.07
2019-05-25T01:46:24.389Z,8.57
2019-05-25T01:49:12.335Z,9.47
2019-05-25T01:51:40.871Z,9.07
2019-05-25T01:54:09.454Z,10.43
2019-05-25T01:56:57.352Z,12.63
2019-05-25T01:59:25.945Z,12.20
2019-05-25T02:01:54.499Z,12.13
2019-05-25T02:04:23.214Z,11.03
2019-05-25T02:06:51.766Z,9.17
2019-05-25T02:09:20.351Z,9.33
2019-05-25T02:12:08.292Z,9.00
2019-05-25T02:14:56.202Z,9.13
2019-05-25T02:17:24.865Z,9.27
2019-05-25T02:19:53.415Z,8.60
2019-05-25T02:22:22.787Z,9.00
2019-05-25T02:24:51.571Z,8.80
2019-05-25T02:27:20.466Z,12.73
2019-05-25T02:29:49.084Z,10.37
2019-05-25T02:32:17.614Z,7.40
2019-05-25T02:34:46.231Z,7.00
2019-05-25T02:37:14.890Z,11.70
2019-05-25T02:39:43.450Z,9.40
2019-05-25T02:42:12.173Z,8.00
2019-05-25T02:44:40.799Z,8.10
2019-05-25T02:47:09.388Z,8.27
2019-05-25T02:49:37.941Z,10.20
2019-05-25T02:52:06.653Z,10.43
2019-05-25T02:54:35.314Z,13.47
2019-05-25T02:57:04.208Z,7.27
2019-05-25T02:59:32.850Z,10.03
2019-05-25T03:02:01.637Z,9.43
2019-05-25T03:04:30.189Z,7.90
2019-05-25T03:06:59.001Z,9.50
2019-05-25T03:09:30.162Z,11.20
2019-05-25T03:11:59.874Z,8.93
2019-05-25T03:14:28.517Z,15.37
2019-05-25T03:16:57.102Z,9.53
2019-05-25T03:19:25.639Z,10.70
2019-05-25T03:21:54.518Z,9.73
2019-05-25T03:24:23.102Z,9.13
2019-05-25T03:26:51.690Z,8.93
2019-05-25T03:29:20.251Z,8.53
2019-05-25T03:31:48.864Z,8.80
2019-05-25T03:34:17.543Z,9.37
2019-05-25T03:36:46.265Z,8.57
2019-05-25T03:39:14.824Z,7.67
2019-05-25T03:41:43.477Z,8.20
2019-05-25T03:44:12.026Z,7.63
2019-05-25T03:46:40.651Z,9.43
2019-05-25T03:49:09.615Z,8.67
2019-05-25T03:51:38.218Z,7.17
2019-05-25T03:54:06.802Z,8.47
2019-05-25T03:56:35.577Z,9.40
2019-05-25T03:59:04.188Z,8.63
2019-05-25T04:01:32.790Z,8.67
2019-05-25T04:04:01.392Z,8.40
2019-05-25T04:06:30.253Z,10.50
2019-05-25T04:08:58.858Z,10.50
2019-05-25T04:11:27.564Z,9.13
2019-05-25T04:13:56.230Z,8.63
2019-05-25T04:16:24.774Z,10.17
2019-05-25T04:18:53.287Z,8.27
2019-05-25T04:21:21.874Z,8.50
2019-05-25T04:23:50.525Z,8.47
2019-05-25T04:26:22.438Z,8.93
2019-05-25T04:28:49.575Z,8.90
2019-05-25T04:31:18.191Z,8.87
2019-05-25T04:33:46.798Z,8.33
2019-05-25T04:36:15.376Z,9.33
2019-05-25T04:38:43.994Z,9.00
2019-05-25T04:41:12.770Z,13.17
2019-05-25T04:43:41.635Z,10.00
2019-05-25T04:46:10.287Z,9.13
2019-05-25T04:48:39.009Z,9.03
2019-05-25T04:51:07.768Z,13.80
2019-05-25T04:53:36.373Z,7.97
2019-05-25T04:56:07.092Z,8.23
2019-05-25T04:58:35.608Z,8.57
2019-05-25T05:01:04.153Z,10.40
2019-05-25T05:03:32.784Z,8.10
2019-05-25T05:06:01.499Z,9.40
2019-05-25T05:08:30.073Z,8.37
2019-05-25T05:10:58.772Z,9.43
2019-05-25T05:13:27.322Z,8.17
2019-05-25T05:15:55.917Z,10.07
2019-05-25T05:18:24.450Z,8.23
2019-05-25T05:20:53.106Z,9.03
2019-05-25T05:23:21.679Z,8.17
2019-05-25T05:25:50.398Z,8.67
2019-05-25T05:28:19.007Z,8.07
2019-05-25T05:30:48.482Z,9.10
2019-05-25T05:33:17.125Z,8.70
2019-05-25T05:35:47.264Z,8.57
2019-05-25T05:38:16.905Z,9.97
2019-05-25T05:40:46.339Z,10.00
2019-05-25T05:43:16.372Z,11.37
2019-05-25T05:45:47.014Z,8.57
2019-05-25T05:48:17.596Z,8.10
2019-05-25T05:50:48.608Z,8.43
2019-05-25T05:53:18.805Z,8.17
2019-05-25T05:55:47.519Z,8.17
2019-05-25T05:58:16.101Z,12.27
2019-05-25T06:00:44.663Z,11.07
2019-05-25T06:03:13.372Z,8.67
2019-05-25T06:05:41.975Z,11.00
2019-05-25T06:08:10.657Z,8.93
2019-05-25T06:10:39.279Z,9.37
2019-05-25T06:13:09.810Z,10.67
2019-05-25T06:15:38.418Z,9.70
2019-05-25T06:18:07.079Z,9.13
2019-05-25T06:20:35.692Z,9.40
2019-05-25T06:23:07.818Z,10.57
2019-05-25T06:25:34.801Z,8.87
2019-05-25T06:28:05.252Z,8.90
2019-05-25T06:30:33.953Z,10.00
2019-05-25T06:33:02.549Z,10.07
2019-05-25T06:35:32.859Z,8.67
2019-05-25T06:38:03.372Z,8.87
2019-05-25T06:40:31.934Z,8.47
2019-05-25T06:43:00.504Z,8.90
2019-05-25T06:45:29.063Z,9.23
2019-05-25T06:47:57.662Z,8.73
2019-05-25T06:50:26.379Z,9.00
2019-05-25T06:52:57.942Z,12.37
2019-05-25T06:55:28.133Z,10.53
2019-05-25T06:57:56.609Z,10.03
2019-05-25T07:00:27.006Z,9.20
2019-05-25T07:02:55.559Z,9.33
2019-05-25T07:05:24.253Z,8.50
2019-05-25T07:07:54.683Z,11.10
2019-05-25T07:10:23.581Z,10.53
2019-05-25T07:12:52.235Z,8.07
2019-05-25T07:15:20.793Z,8.23
2019-05-25T07:17:49.435Z,8.27
2019-05-25T07:20:18.272Z,8.07
2019-05-25T07:22:46.934Z,6.73
2019-05-25T07:25:20.005Z,7.87
2019-05-25T07:27:58.689Z,9.00
2019-05-25T07:30:18.275Z,7.53
2019-05-25T07:32:47.325Z,7.83
2019-05-25T07:35:16.635Z,8.33
2019-05-25T07:37:45.477Z,6.87
2019-05-25T07:40:14.855Z,6.90
2019-05-25T07:42:43.531Z,7.23
2019-05-25T07:45:15.210Z,6.90
2019-05-25T07:47:43.819Z,7.83
2019-05-25T07:50:13.169Z,7.20
2019-05-25T07:52:41.752Z,6.93
2019-05-25T07:55:10.649Z,6.27
2019-05-25T07:57:39.516Z,7.50
2019-05-25T08:00:09.206Z,6.37
2019-05-25T08:02:37.963Z,8.27
2019-05-25T08:05:07.790Z,11.33
2019-05-25T08:07:36.569Z,5.97
2019-05-25T08:10:06.782Z,6.13
2019-05-25T08:12:35.418Z,7.73
2019-05-25T08:15:05.514Z,6.23
2019-05-25T08:17:34.439Z,7.43
2019-05-25T08:20:03.938Z,6.77
2019-05-25T08:22:32.586Z,5.00
2019-05-25T08:25:02.831Z,4.80
2019-05-25T08:27:31.386Z,5.03
2019-05-25T08:29:59.963Z,4.93
2019-05-25T08:32:28.583Z,5.33
2019-05-25T08:34:57.261Z,5.10
2019-05-25T08:37:26.151Z,3.97
2019-05-25T08:39:54.814Z,4.73
2019-05-25T08:42:23.390Z,3.80
2019-05-25T08:44:51.974Z,4.70
2019-05-25T08:47:20.645Z,4.13
2019-05-25T08:49:49.452Z,3.63
2019-05-25T08:52:37.763Z,6.07
2019-05-25T08:55:07.834Z,4.90
2019-05-25T08:57:38.167Z,6.83
2019-05-25T09:00:07.507Z,4.63
2019-05-25T09:02:36.073Z,4.10
2019-05-25T09:05:08.859Z,4.70
2019-05-25T09:07:40.850Z,6.20
2019-05-25T09:10:11.042Z,4.77
2019-05-25T09:12:39.759Z,4.57
2019-05-25T09:15:10.327Z,4.23
2019-05-25T09:17:38.944Z,3.93
2019-05-25T09:20:09.495Z,3.90
2019-05-25T09:22:38.243Z,4.53
2019-05-25T09:25:08.984Z,4.67
2019-05-25T09:27:37.501Z,4.93
2019-05-25T09:30:08.300Z,4.10
2019-05-25T09:32:37.002Z,4.50
2019-05-25T09:35:07.411Z,4.13
2019-05-25T09:37:36.108Z,4.00
2019-05-25T09:40:06.096Z,4.40
2019-05-25T09:42:34.754Z,4.27
2019-05-25T09:45:04.958Z,8.50
2019-05-25T09:47:33.614Z,4.80
2019-05-25T09:50:02.106Z,4.53
2019-05-25T09:52:30.803Z,4.10
2019-05-25T09:55:00.492Z,6.30
2019-05-25T09:57:29.177Z,4.27
2019-05-25T09:59:58.087Z,3.87
2019-05-25T10:02:27.442Z,3.97
2019-05-25T10:04:56.146Z,7.67
2019-05-25T10:07:24.946Z,5.17
2019-05-25T10:09:54.263Z,4.60
2019-05-25T10:12:22.923Z,7.17
2019-05-25T10:14:51.526Z,5.70
2019-05-25T10:17:20.123Z,4.50
2019-05-25T10:19:48.774Z,5.23
2019-05-25T10:22:17.589Z,4.43
2019-05-25T10:24:46.219Z,5.40
2019-05-25T10:27:14.921Z,5.03
2019-05-25T10:29:43.536Z,4.77
2019-05-25T10:32:12.186Z,6.97
2019-05-25T10:34:40.949Z,5.37
2019-05-25T10:37:09.623Z,5.27
2019-05-25T10:39:39.928Z,5.07
2019-05-25T10:42:08.537Z,6.63
2019-05-25T10:44:37.121Z,5.10
2019-05-25T10:47:05.759Z,5.17
2019-05-25T10:49:34.547Z,5.73
2019-05-25T10:52:03.260Z,5.70
2019-05-25T10:54:31.869Z,6.40
2019-05-25T10:57:00.602Z,8.27
2019-05-25T10:59:29.234Z,5.27
2019-05-25T11:01:57.804Z,5.30
2019-05-25T11:04:26.410Z,6.20
2019-05-25T11:06:54.988Z,7.40
2019-05-25T11:09:23.551Z,5.90
2019-05-25T11:11:52.204Z,6.33
2019-05-25T11:14:20.822Z,7.47
2019-05-25T11:16:49.610Z,5.53
2019-05-25T11:19:18.309Z,7.47
2019-05-25T11:21:46.994Z,5.30
2019-05-25T11:24:15.592Z,6.97
2019-05-25T11:26:44.286Z,5.50
2019-05-25T11:29:12.926Z,6.03
2019-05-25T11:31:41.498Z,6.37
2019-05-25T11:34:10.114Z,8.93
2019-05-25T11:36:38.768Z,17.43
2019-05-25T11:39:07.863Z,7.50
2019-05-25T11:41:36.391Z,9.80
2019-05-25T11:44:05.388Z,8.60
2019-05-25T11:46:33.975Z,12.93
2019-05-25T11:49:03.849Z,17.93
2019-05-25T11:51:32.478Z,11.93
2019-05-25T11:54:01.157Z,15.17
2019-05-25T11:56:29.771Z,12.67
2019-05-25T11:58:58.370Z,12.90
2019-05-25T12:01:26.929Z,34.93
2019-05-25T12:03:55.599Z,23.93
2019-05-25T12:06:26.944Z,28.63
2019-05-25T12:08:57.138Z,43.00
2019-05-25T12:11:45.106Z,24.53
2019-05-25T12:14:14.508Z,38.47
2019-05-25T12:16:43.199Z,33.83
2019-05-25T12:19:14.859Z,26.20
2019-05-25T12:21:42.185Z,21.60
2019-05-25T12:24:10.825Z,20.23
2019-05-25T12:26:58.731Z,22.87
2019-05-25T12:29:27.451Z,20.87
2019-05-25T12:32:04.226Z,18.33
2019-05-25T12:34:26.401Z,16.30
2019-05-25T12:37:14.371Z,22.50
2019-05-25T12:39:43.155Z,20.47
2019-05-25T12:42:11.820Z,18.83
2019-05-25T12:44:40.359Z,20.63
2019-05-25T12:47:09.221Z,22.10
2019-05-25T12:49:50.047Z,19.20
2019-05-25T12:52:08.194Z,19.47
2019-05-25T12:54:36.793Z,17.20
2019-05-25T12:57:05.467Z,17.70
2019-05-25T12:59:34.117Z,17.87
2019-05-25T13:02:02.715Z,16.73
2019-05-25T13:04:31.339Z,21.13
2019-05-25T13:07:00.002Z,20.17
2019-05-25T13:09:28.661Z,16.57
2019-05-25T13:11:57.245Z,17.90
2019-05-25T13:14:26.146Z,16.90
2019-05-25T13:16:54.876Z,17.80
2019-05-25T13:19:23.712Z,19.53
2019-05-25T13:21:52.332Z,19.20
2019-05-25T13:24:21.391Z,18.53
2019-05-25T13:26:50.026Z,20.63
2019-05-25T13:29:18.807Z,20.17
2019-05-25T13:31:47.480Z,18.63
2019-05-25T13:34:16.257Z,16.97
2019-05-25T13:36:44.928Z,18.90
2019-05-25T13:39:13.631Z,19.53
2019-05-25T13:41:43.943Z,11.20
2019-05-25T13:44:12.497Z,10.17
2019-05-25T13:46:41.134Z,12.07
2019-05-25T13:49:09.742Z,11.43
2019-05-25T13:51:38.407Z,11.87
2019-05-25T13:54:06.964Z,10.23
2019-05-25T13:56:35.703Z,17.43
2019-05-25T13:59:04.556Z,11.60
2019-05-25T14:01:33.187Z,10.03
2019-05-25T14:04:02.083Z,10.97
2019-05-25T14:06:30.750Z,11.70
2019-05-25T14:08:59.340Z,10.67
2019-05-25T14:11:27.976Z,11.80
2019-05-25T14:13:56.662Z,10.67
2019-05-25T14:16:25.539Z,12.20
2019-05-25T14:18:54.165Z,9.30
2019-05-25T14:21:22.832Z,10.70
2019-05-25T14:23:51.543Z,11.27
2019-05-25T14:26:20.251Z,9.83
2019-05-25T14:28:48.908Z,6.00
2019-05-25T14:31:17.458Z,4.50
2019-05-25T14:33:46.336Z,8.03
2019-05-25T14:36:23.974Z,3.37
2019-05-25T14:38:52.641Z,7.07
2019-05-25T14:41:21.316Z,5.67
2019-05-25T14:43:49.937Z,7.23
2019-05-25T14:46:27.301Z,6.03
2019-05-25T14:48:48.786Z,5.60
2019-05-25T14:51:17.441Z,4.67
2019-05-25T14:53:46.038Z,4.03
2019-05-25T14:56:14.665Z,8.03
2019-05-25T14:58:43.543Z,5.30
2019-05-25T15:01:12.087Z,5.37
2019-05-25T15:03:41.010Z,5.93
2019-05-25T15:06:10.399Z,6.33
2019-05-25T15:08:39.171Z,3.90
2019-05-25T15:11:07.957Z,5.20
2019-05-25T15:13:36.586Z,10.33
2019-05-25T15:16:05.301Z,7.77
2019-05-25T15:18:36.968Z,13.50
2019-05-25T15:21:05.823Z,17.80
2019-05-25T15:23:40.490Z,8.20
2019-05-25T15:26:09.177Z,5.50
2019-05-25T15:28:38.016Z,6.97
2019-05-25T15:31:07.698Z,9.00
2019-05-25T15:33:36.483Z,8.33
2019-05-25T15:36:05.763Z,7.07
2019-05-25T15:38:34.317Z,9.10
2019-05-25T15:41:02.848Z,7.07
2019-05-25T15:43:31.439Z,10.67
2019-05-25T15:46:00.099Z,11.23
2019-05-25T15:48:28.782Z,9.50
2019-05-25T15:50:57.441Z,7.53
2019-05-25T15:53:26.075Z,7.80
2019-05-25T15:55:54.662Z,8.23
2019-05-25T15:58:23.376Z,8.70
2019-05-25T16:00:52.777Z,8.07
2019-05-25T16:03:21.437Z,8.67
2019-05-25T16:05:50.537Z,8.73
2019-05-25T16:08:20.444Z,8.90
2019-05-25T16:10:49.543Z,8.40
2019-05-25T16:13:18.516Z,9.13
2019-05-25T16:15:47.226Z,11.63
2019-05-25T16:18:15.890Z,8.83
2019-05-25T16:20:44.502Z,8.10
2019-05-25T16:23:13.268Z,11.47
2019-05-25T16:25:42.411Z,9.73
2019-05-25T16:28:11.027Z,13.30
2019-05-25T16:30:39.590Z,13.40
2019-05-25T16:33:12.545Z,13.07
2019-05-25T16:35:38.582Z,9.40
2019-05-25T16:38:07.278Z,10.57
2019-05-25T16:40:36.244Z,11.80
2019-05-25T16:43:05.209Z,10.43
2019-05-25T16:45:33.854Z,10.33
2019-05-25T16:48:02.424Z,8.63
2019-05-25T16:50:30.987Z,10.27
2019-05-25T16:52:59.955Z,9.17
2019-05-25T16:55:28.543Z,9.93
2019-05-25T16:57:57.174Z,7.87
2019-05-25T17:00:29.885Z,9.07
2019-05-25T17:02:59.399Z,8.37
2019-05-25T17:05:28.587Z,7.70
2019-05-25T17:07:57.762Z,8.73
2019-05-25T17:10:27.184Z,8.40
2019-05-25T17:12:55.862Z,8.20
2019-05-25T17:15:24.714Z,7.57
2019-05-25T17:17:53.900Z,7.83
2019-05-25T17:20:22.632Z,8.00
2019-05-25T17:22:51.260Z,7.83
2019-05-25T17:25:20.246Z,12.63
2019-05-25T17:27:49.109Z,8.13
2019-05-25T17:30:20.749Z,9.07
2019-05-25T17:32:49.338Z,13.17
2019-05-25T17:35:17.891Z,8.83
2019-05-25T17:37:46.539Z,9.77
2019-05-25T17:40:15.554Z,8.10
2019-05-25T17:42:44.143Z,29.47
2019-05-25T17:45:13.091Z,17.57
2019-05-25T17:47:43.374Z,9.57
2019-05-25T17:50:13.726Z,9.37
2019-05-25T17:52:42.314Z,8.60
2019-05-25T17:55:11.297Z,11.50
2019-05-25T17:57:39.970Z,8.50
2019-05-25T18:00:10.616Z,8.33
2019-05-25T18:02:39.529Z,9.73
2019-05-25T18:05:09.839Z,6.30
2019-05-25T18:07:39.615Z,6.63
2019-05-25T18:10:09.304Z,6.50
2019-05-25T18:12:37.994Z,7.00
2019-05-25T18:15:11.295Z,6.63
2019-05-25T18:17:39.948Z,7.67
2019-05-25T18:20:10.581Z,7.17
2019-05-25T18:22:39.237Z,7.03
2019-05-25T18:25:07.985Z,6.87
2019-05-25T18:27:36.639Z,7.23
2019-05-25T18:30:11.112Z,7.30
2019-05-25T18:32:39.912Z,9.30
2019-05-25T18:35:09.181Z,7.57
2019-05-25T18:37:37.887Z,8.70
2019-05-25T18:40:08.214Z,9.80
2019-05-25T18:42:37.158Z,9.60
2019-05-25T18:45:07.819Z,9.17
2019-05-25T18:47:36.898Z,9.43
2019-05-25T18:50:08.430Z,9.50
2019-05-25T18:52:37.085Z,8.53
2019-05-25T18:55:08.094Z,8.63
2019-05-25T18:57:36.708Z,8.77
2019-05-25T19:00:11.450Z,9.10
2019-05-25T19:02:40.085Z,8.73
2019-05-25T19:05:09.623Z,9.37
2019-05-25T19:07:38.498Z,9.93
2019-05-25T19:10:10.679Z,9.33
2019-05-25T19:12:39.349Z,10.10
2019-05-25T19:15:09.263Z,9.77
2019-05-25T19:17:37.970Z,11.30
2019-05-25T19:20:08.039Z,10.43
2019-05-25T19:22:37.035Z,10.57
2019-05-25T19:25:08.337Z,9.87
2019-05-25T19:27:37.029Z,15.40
2019-05-25T19:30:10.379Z,11.17
2019-05-25T19:32:38.937Z,10.17
2019-05-25T19:35:09.145Z,9.60
2019-05-25T19:37:41.860Z,10.33
2019-05-25T19:40:09.684Z,12.30
2019-05-25T19:42:38.341Z,10.70
2019-05-25T19:45:12.076Z,10.87
2019-05-25T19:47:40.646Z,10.97
2019-05-25T19:50:10.239Z,10.43
2019-05-25T19:52:39.009Z,9.80
2019-05-25T19:55:08.507Z,10.43
2019-05-25T19:57:38.751Z,10.67
2019-05-25T20:00:08.431Z,12.90
2019-05-25T20:02:37.109Z,12.77
2019-05-25T20:05:16.452Z,14.47
2019-05-25T20:07:37.901Z,15.20
2019-05-25T20:10:07.438Z,15.87
2019-05-25T20:12:36.145Z,15.67
2019-05-25T20:15:07.021Z,15.37
2019-05-25T20:17:35.910Z,12.90
2019-05-25T20:20:06.362Z,13.73
2019-05-25T20:22:35.018Z,13.30
2019-05-25T20:25:07.176Z,14.53
2019-05-25T20:27:35.919Z,12.73
2019-05-25T20:30:09.146Z,12.40
2019-05-25T20:32:39.370Z,14.17
2019-05-25T20:35:08.773Z,14.90
2019-05-25T20:37:37.607Z,18.30
2019-05-25T20:40:08.370Z,17.47
2019-05-25T20:42:37.287Z,19.90
2019-05-25T20:45:11.072Z,18.73
2019-05-25T20:47:39.704Z,19.50
2019-05-25T20:50:09.102Z,20.20
2019-05-25T20:52:37.697Z,18.37
2019-05-25T20:55:10.478Z,17.43
2019-05-25T20:57:39.154Z,17.07
2019-05-25T21:00:09.473Z,17.33
2019-05-25T21:02:38.144Z,19.90
2019-05-25T21:05:07.981Z,20.00
2019-05-25T21:07:36.770Z,18.77
2019-05-25T21:10:08.690Z,19.87
2019-05-25T21:12:37.345Z,18.23
2019-05-25T21:15:08.203Z,20.63
2019-05-25T21:17:36.784Z,18.27
2019-05-25T21:20:06.574Z,17.13
2019-05-25T21:22:35.942Z,18.83
2019-05-25T21:25:07.055Z,19.67
2019-05-25T21:27:35.759Z,20.20
2019-05-25T21:30:06.190Z,20.33
2019-05-25T21:32:34.773Z,19.67
2019-05-25T21:35:03.854Z,20.50
2019-05-25T21:37:32.581Z,19.80
2019-05-25T21:40:01.163Z,17.70
2019-05-25T21:42:29.742Z,16.27
2019-05-25T21:44:58.343Z,15.27
2019-05-25T21:47:26.875Z,13.27
2019-05-25T21:49:55.526Z,14.67
2019-05-25T21:52:24.182Z,15.27
2019-05-25T21:54:52.804Z,15.30
2019-05-25T21:57:21.363Z,16.53
2019-05-25T21:59:49.965Z,17.97
2019-05-25T22:02:18.815Z,15.63
2019-05-25T22:04:47.374Z,14.90
2019-05-25T22:07:15.971Z,12.77
2019-05-25T22:09:44.587Z,12.70
2019-05-25T22:12:13.322Z,13.70
2019-05-25T22:14:41.950Z,13.47
2019-05-25T22:17:10.595Z,11.87
2019-05-25T22:19:39.149Z,11.80
2019-05-25T22:22:07.916Z,11.40
2019-05-25T22:24:36.720Z,11.00
2019-05-25T22:27:08.086Z,9.30
2019-05-25T22:29:36.710Z,10.10
2019-05-25T22:32:05.430Z,9.87
2019-05-25T22:34:34.106Z,15.63
2019-05-25T22:37:02.663Z,10.67
2019-05-25T22:39:31.295Z,9.43
2019-05-25T22:41:59.896Z,10.30
2019-05-25T22:44:28.471Z,10.73
2019-05-25T22:46:57.128Z,11.80
2019-05-25T22:49:25.779Z,9.20
2019-05-25T22:51:54.358Z,11.43
2019-05-25T22:54:22.954Z,9.77
2019-05-25T22:56:51.524Z,10.63
2019-05-25T22:59:20.358Z,10.20
2019-05-25T23:01:49.102Z,9.00
2019-05-25T23:04:17.731Z,9.03
2019-05-25T23:06:57.237Z,8.50
2019-05-25T23:09:16.678Z,9.03
2019-05-25T23:11:45.246Z,9.37
2019-05-25T23:14:13.864Z,8.67
2019-05-25T23:16:42.484Z,9.53
2019-05-25T23:19:11.046Z,13.80
2019-05-25T23:21:39.656Z,8.73
2019-05-25T23:24:08.338Z,8.40
2019-05-25T23:26:37.094Z,12.77
2019-05-25T23:29:05.933Z,11.60
2019-05-25T23:31:34.595Z,14.07
2019-05-25T23:34:03.268Z,15.50
2019-05-25T23:36:31.921Z,14.87
2019-05-25T23:39:00.574Z,14.77
2019-05-25T23:41:29.159Z,18.30
2019-05-25T23:43:59.962Z,19.03
2019-05-25T23:46:28.053Z,21.73
2019-05-25T23:48:56.614Z,14.67
2019-05-25T23:51:25.260Z,15.10
2019-05-25T23:53:53.819Z,13.67
2019-05-25T23:56:22.391Z,16.37
2019-05-25T23:58:50.974Z,14.93
